Time;durP1;ratioP1;P1;durP2;ratioP2;P2;SDS_P1;SDS_P2;PMS_P1;PMS_P2;Temp;Humidity;BMP_temperature;BMP_pressure;BME280_temperature;BME280_humidity;BME280_pressure;Samples;Min_cycle;Max_cycle;Signal;HPM_P1;HPM_P2
2021/12/05 02:42:13;;;;;;;7.70;4.55;;;;;;;;;;5993147;23;20026;-82
2021/12/05 02:45:00;;;;;;;5.47;3.53;;;;;;;;;;4939527;28;20103;-85
2021/12/05 02:50:24;;;;;;;6.10;3.60;;;;;;;;;;5557074;23;20036;-84
2021/12/05 03:26:29;;;;;;;6.13;2.30;;;;;;;;;;5298024;23;20039;-86
2021/12/05 06:22:23;;;;;;;8.95;2.00;;;;;;;;;;5346747;23;20104;-82
2021/12/05 11:48:48;;;;;;;10.93;3.35;;;;;;;;;;5944326;23;20034;-90
2021/12/05 12:23:56;;;;;;;;;;;;;;;;;;;;;
2021/12/05 12:46:58;;;;;;;20.52;3.05;;;;;;;;;;4955110;29;20059;-90
2021/12/05 12:49:26;;;;;;;9.13;2.13;;;;;;;;;;4939320;29;20584;-92
2021/12/05 12:51:54;;;;;;;8.02;2.33;;;;;;;;;;4938819;29;20118;-89
2021/12/05 12:54:28;;;;;;;7.30;1.85;;;;;;;;;;4939247;29;20487;-92
2021/12/05 12:57:11;;;;;;;9.18;2.10;;;;;;;;;;4938983;29;20485;-91
2021/12/05 12:59:38;;;;;;;8.98;2.10;;;;;;;;;;4938761;29;20023;-92
2021/12/05 13:10:01;;;;;;;14.75;3.28;;;;;;;;;;4956901;29;20227;-90
2021/12/05 13:10:17;;;;;;;7.63;2.33;;;;;;;;;;4955274;28;20115;-91
2021/12/05 13:12:45;;;;;;;6.30;1.92;;;;;;;;;;4939273;29;20502;-93
2021/12/05 13:15:26;;;;;;;11.30;2.35;;;;;;;;;;4941766;29;20073;-93
2021/12/05 13:18:01;;;;;;;8.95;2.30;;;;;;;;;;4940509;29;20019;-95
2021/12/05 13:20:42;;;;;;;11.63;2.50;;;;;;;;;;4942744;29;20187;-92
2021/12/05 13:23:11;;;;;;;8.10;2.75;;;;;;;;;;4959706;28;20051;-93
2021/12/05 13:26:09;;;;;;;13.55;3.40;;;;;;;;;;4955516;29;20082;-92
2021/12/05 13:28:47;;;;;;;12.93;3.33;;;;;;;;;;4921800;28;20023;-91
2021/12/05 14:17:51;;;;;;;8.80;3.13;;;;;;;;;;5703095;23;20048;-88
2021/12/05 14:22:54;;;;;;;14.77;4.38;;;;;;;;;;5067750;23;20051;-90
2021/12/05 14:25:21;;;;;;;15.27;4.90;;;;;;;;;;4943567;28;20046;-91
2021/12/05 14:27:52;;;;;;;10.38;3.70;;;;;;;;;;4940454;28;20032;-92
2021/12/05 14:30:20;;;;;;;10.50;3.33;;;;;;;;;;4939738;29;20028;-90
2021/12/05 14:32:47;;;;;;;10.88;3.65;;;;;;;;;;4942611;28;20019;-91
2021/12/05 14:35:14;;;;;;;11.32;3.33;;;;;;;;;;4934692;29;20023;-89
2021/12/05 14:37:40;;;;;;;27.38;4.63;;;;;;;;;;4934160;29;20016;-90
2021/12/05 14:40:06;;;;;;;13.40;4.65;;;;;;;;;;4936896;29;20020;-90
2021/12/05 14:42:37;;;;;;;11.23;3.22;;;;;;;;;;4943183;28;20087;-89
2021/12/05 14:45:10;;;;;;;9.73;3.55;;;;;;;;;;5225159;23;20036;-91
2021/12/05 14:47:37;;;;;;;11.63;3.25;;;;;;;;;;5649177;23;20016;-88
2021/12/05 14:50:12;;;;;;;16.45;3.22;;;;;;;;;;4943880;28;20063;-85
2021/12/05 14:52:39;;;;;;;9.30;2.58;;;;;;;;;;4942543;28;20024;-84
2021/12/05 14:55:07;;;;;;;13.57;3.25;;;;;;;;;;4941070;29;20031;-84
2021/12/05 14:57:39;;;;;;;11.77;3.45;;;;;;;;;;4943460;28;20114;-91
2021/12/05 15:00:06;;;;;;;7.80;3.20;;;;;;;;;;4943823;28;20007;-86
2021/12/05 15:02:31;;;;;;;8.52;3.58;;;;;;;;;;4943833;28;20019;-89
2021/12/05 15:04:57;;;;;;;9.50;2.75;;;;;;;;;;4943421;28;20024;-91
2021/12/05 15:07:27;;;;;;;14.90;3.78;;;;;;;;;;4943594;28;20011;-89
2021/12/05 15:12:30;;;;;;;10.23;3.50;;;;;;;;;;5327045;23;20042;-89
2021/12/05 15:14:56;;;;;;;9.77;2.88;;;;;;;;;;4944500;28;20044;-89
2021/12/05 15:17:31;;;;;;;7.97;3.67;;;;;;;;;;4945071;28;20075;-89
2021/12/05 15:19:58;;;;;;;8.65;3.55;;;;;;;;;;4928093;29;20028;-92
2021/12/05 15:22:24;;;;;;;12.98;4.75;;;;;;;;;;5061578;23;20031;-89
2021/12/05 15:24:58;;;;;;;13.25;5.45;;;;;;;;;;4946899;28;20042;-89
2021/12/05 15:27:26;;;;;;;16.08;5.57;;;;;;;;;;4946797;28;20171;-89
2021/12/05 15:29:53;;;;;;;12.48;5.05;;;;;;;;;;4921220;29;20024;-90
2021/12/05 15:32:20;;;;;;;12.13;5.15;;;;;;;;;;4922635;29;20035;-93
2021/12/05 15:34:48;;;;;;;10.68;5.28;;;;;;;;;;4915534;29;20052;-91
2021/12/05 15:37:13;;;;;;;15.77;5.35;;;;;;;;;;4917697;29;20032;-92
2021/12/05 15:39:42;;;;;;;13.57;4.80;;;;;;;;;;4938414;29;20058;-91
2021/12/05 15:42:23;;;;;;;17.00;5.63;;;;;;;;;;4920705;29;20017;-91
2021/12/05 15:44:50;;;;;;;14.18;5.28;;;;;;;;;;4922214;29;20072;-92
2021/12/05 15:47:17;;;;;;;11.70;4.97;;;;;;;;;;4921337;29;20020;-91
2021/12/05 15:49:45;;;;;;;17.20;5.82;;;;;;;;;;4923507;29;20012;-90
2021/12/05 15:52:10;;;;;;;13.35;6.45;;;;;;;;;;4922992;29;20012;-91
2021/12/05 15:54:36;;;;;;;15.85;5.72;;;;;;;;;;4925183;29;20064;-91
2021/12/05 15:57:11;;;;;;;17.48;7.15;;;;;;;;;;4923042;29;20043;-91
2021/12/05 15:59:39;;;;;;;17.98;6.32;;;;;;;;;;4916022;29;20027;-92
2021/12/05 16:02:08;;;;;;;15.45;5.20;;;;;;;;;;4912425;29;20023;-92
2021/12/05 16:04:33;;;;;;;14.38;5.68;;;;;;;;;;4917147;29;20211;-91
2021/12/05 16:07:00;;;;;;;11.93;5.00;;;;;;;;;;4920117;29;20020;-91
2021/12/05 16:09:27;;;;;;;13.77;5.65;;;;;;;;;;4919563;29;20023;-91
2021/12/05 16:12:04;;;;;;;20.92;6.88;;;;;;;;;;4921208;29;20027;-91
2021/12/05 16:14:31;;;;;;;20.63;7.25;;;;;;;;;;4923203;29;20095;-90
2021/12/05 16:16:56;;;;;;;15.18;7.75;;;;;;;;;;4921761;29;20028;-90
2021/12/05 16:19:22;;;;;;;13.82;6.97;;;;;;;;;;4942568;28;20039;-87
2021/12/05 16:21:47;;;;;;;17.88;7.30;;;;;;;;;;4924895;29;20028;-90
2021/12/05 16:24:14;;;;;;;21.40;8.88;;;;;;;;;;4926432;28;20032;-88
2021/12/05 16:29:25;;;;;;;21.67;9.20;;;;;;;;;;5159968;23;20085;-90
2021/12/05 16:31:53;;;;;;;27.90;9.48;;;;;;;;;;5061939;23;20935;-89
2021/12/05 16:34:21;;;;;;;19.45;8.52;;;;;;;;;;5034610;23;20043;-88
2021/12/05 16:39:24;;;;;;;21.60;8.52;;;;;;;;;;5848895;23;20848;-88
2021/12/05 16:57:23;;;;;;;20.77;8.98;;;;;;;;;;5945183;23;20038;-87
2021/12/05 17:02:29;;;;;;;14.63;7.65;;;;;;;;;;5572912;23;20022;-89
2021/12/05 17:05:02;;;;;;;20.65;7.45;;;;;;;;;;5443504;23;20023;-89
2021/12/05 17:20:26;;;;;;;15.18;4.72;;;;;;;;;;5964253;23;20021;-86
2021/12/05 17:25:40;;;;;;;14.68;3.85;;;;;;;;;;5610364;23;20051;-91
2021/12/05 17:28:07;;;;;;;10.25;4.00;;;;;;;;;;4944392;28;20008;-90
2021/12/05 17:30:32;;;;;;;15.70;4.32;;;;;;;;;;4943805;28;20018;-88
2021/12/05 17:32:58;;;;;;;20.80;11.02;;;;;;;;;;4943691;28;20020;-89
2021/12/05 17:35:26;;;;;;;10.80;4.70;;;;;;;;;;4944213;28;20059;-88
2021/12/05 17:37:52;;;;;;;11.67;3.97;;;;;;;;;;4944146;28;20008;-89
2021/12/05 17:40:18;;;;;;;10.82;2.65;;;;;;;;;;4944068;28;20026;-89
2021/12/05 17:42:44;;;;;;;13.55;2.60;;;;;;;;;;4942523;28;20027;-88
2021/12/05 17:45:10;;;;;;;9.57;2.70;;;;;;;;;;4942617;29;20103;-85
2021/12/05 17:47:36;;;;;;;11.68;3.45;;;;;;;;;;4942962;29;20026;-86
2021/12/05 17:50:06;;;;;;;9.68;3.10;;;;;;;;;;4944184;28;20035;-90
2021/12/05 17:52:32;;;;;;;14.77;3.38;;;;;;;;;;4944382;28;20084;-90
2021/12/05 17:55:04;;;;;;;11.77;3.65;;;;;;;;;;4943848;28;20032;-92
2021/12/05 18:07:54;;;;;;;7.65;1.95;;;;;;;;;;5099772;23;20048;-92
2021/12/05 18:10:31;;;;;;;;;;;;;;;;;;;;;
2021/12/05 18:12:59;;;;;;;3.80;1.55;;;;;;;;;;4961105;28;20007;-89
2021/12/05 18:15:28;;;;;;;5.22;2.05;;;;;;;;;;4943927;28;20012;-91
2021/12/05 18:23:06;;;;;;;9.63;2.28;;;;;;;;;;5421015;23;20048;-93
2021/12/05 18:25:38;;;;;;;6.97;1.95;;;;;;;;;;5214790;23;20047;-88
2021/12/05 18:38:25;;;;;;;8.32;2.25;;;;;;;;;;5163744;23;20097;-90
2021/12/05 18:40:54;;;;;;;6.28;1.77;;;;;;;;;;4942530;28;20016;-86
2021/12/05 18:43:23;;;;;;;;;;;;;;;;;;4943109;29;20019;-89
2021/12/05 18:45:50;;;;;;;4.28;1.85;;;;;;;;;;4943122;28;19918;-86
2021/12/05 18:48:16;;;;;;;4.32;1.70;;;;;;;;;;4943712;28;20015;-90
2021/12/05 18:50:42;;;;;;;7.97;1.73;;;;;;;;;;4946149;28;20012;-87
2021/12/05 18:53:10;;;;;;;7.68;2.00;;;;;;;;;;4946943;28;20027;-90
2021/12/05 18:55:36;;;;;;;7.53;1.98;;;;;;;;;;5214291;23;20031;-93
2021/12/05 18:58:08;;;;;;;7.80;2.15;;;;;;;;;;4946136;28;20047;-92
2021/12/05 19:00:41;;;;;;;5.68;2.08;;;;;;;;;;4946804;28;20012;-92
2021/12/05 19:06:05;;;;;;;9.90;2.13;;;;;;;;;;4976739;23;20059;-93
2021/12/05 19:08:37;;;;;;;6.70;2.30;;;;;;;;;;4946956;28;20008;-91
2021/12/05 19:13:47;;;;;;;5.78;2.13;;;;;;;;;;5314181;23;20043;-92
2021/12/05 19:16:14;;;;;;;11.23;2.20;;;;;;;;;;4945972;28;20012;-90
2021/12/05 19:18:39;;;;;;;6.65;2.55;;;;;;;;;;4946270;28;20079;-90
2021/12/05 19:21:05;;;;;;;10.27;3.20;;;;;;;;;;4945913;28;20067;-91
2021/12/05 19:23:31;;;;;;;10.18;2.97;;;;;;;;;;4946514;28;20043;-92
2021/12/05 19:25:57;;;;;;;9.80;2.97;;;;;;;;;;4943170;29;20050;-93
2021/12/05 19:28:22;;;;;;;9.23;3.35;;;;;;;;;;4943367;29;20019;-91
2021/12/05 19:30:49;;;;;;;11.68;3.80;;;;;;;;;;4944407;28;20051;-91
2021/12/05 19:33:17;;;;;;;13.45;4.07;;;;;;;;;;4945835;28;20034;-92
2021/12/05 19:35:43;;;;;;;11.68;4.53;;;;;;;;;;4944849;28;20126;-92
2021/12/05 19:38:09;;;;;;;14.30;5.07;;;;;;;;;;4945238;29;20024;-89
2021/12/05 19:40:36;;;;;;;15.85;6.72;;;;;;;;;;4945362;29;20091;-89
2021/12/05 19:43:02;;;;;;;17.63;6.63;;;;;;;;;;4945422;29;20011;-90
2021/12/05 19:45:29;;;;;;;13.25;5.00;;;;;;;;;;4946908;28;20059;-90
2021/12/05 19:47:55;;;;;;;15.18;4.75;;;;;;;;;;4946619;28;20004;-90
2021/12/05 19:50:24;;;;;;;12.32;4.60;;;;;;;;;;4945409;28;20036;-91
2021/12/05 19:52:50;;;;;;;10.23;4.70;;;;;;;;;;4943957;29;20168;-91
2021/12/05 19:55:16;;;;;;;14.90;5.70;;;;;;;;;;4941854;28;20079;-92
2021/12/05 19:57:43;;;;;;;10.98;5.03;;;;;;;;;;4946046;28;20020;-92
2021/12/05 20:00:23;;;;;;;18.42;5.63;;;;;;;;;;4945794;28;20012;-91
2021/12/05 20:05:26;;;;;;;15.20;5.82;;;;;;;;;;5811384;23;20160;-92
2021/12/05 20:07:52;;;;;;;14.32;5.82;;;;;;;;;;5231512;23;20047;-90
2021/12/05 20:10:19;;;;;;;13.32;6.07;;;;;;;;;;4946377;28;20018;-88
2021/12/05 20:12:47;;;;;;;22.30;7.10;;;;;;;;;;4946319;28;20035;-90
2021/12/05 20:15:12;;;;;;;15.23;6.45;;;;;;;;;;4946265;28;20047;-89
2021/12/05 20:17:38;;;;;;;24.10;6.72;;;;;;;;;;5042874;23;20035;-92
2021/12/05 20:25:15;;;;;;;15.60;7.18;;;;;;;;;;4989398;23;20318;-91
2021/12/05 20:27:41;;;;;;;12.55;6.30;;;;;;;;;;5091940;23;20051;-90
2021/12/05 20:32:43;;;;;;;13.25;6.80;;;;;;;;;;5527942;23;20046;-90
2021/12/05 20:35:12;;;;;;;15.65;6.53;;;;;;;;;;5169569;23;20827;-91
2021/12/05 20:37:39;;;;;;;16.38;7.60;;;;;;;;;;5294928;23;20035;-91
2021/12/05 20:45:19;;;;;;;17.08;7.72;;;;;;;;;;5524587;23;20054;-90
2021/12/05 20:47:45;;;;;;;15.68;7.03;;;;;;;;;;5272864;23;20036;-91
2021/12/05 20:55:25;;;;;;;22.13;8.23;;;;;;;;;;5332510;23;20111;-90
2021/12/05 20:57:52;;;;;;;17.77;8.13;;;;;;;;;;5179768;23;20047;-90
2021/12/05 21:02:55;;;;;;;16.20;7.82;;;;;;;;;;5092128;23;20036;-88
2021/12/05 21:07:58;;;;;;;22.90;8.38;;;;;;;;;;5122221;23;20032;-90
2021/12/05 21:10:30;;;;;;;17.48;7.72;;;;;;;;;;4985141;23;20052;-87
2021/12/05 21:18:10;;;;;;;20.67;8.23;;;;;;;;;;5492440;23;20087;-89
2021/12/05 21:23:11;;;;;;;18.98;8.63;;;;;;;;;;5388411;23;20040;-90
2021/12/05 21:28:11;;;;;;;15.65;8.10;;;;;;;;;;5540134;23;20036;-88
2021/12/05 21:30:40;;;;;;;14.68;8.52;;;;;;;;;;5078674;23;20063;-86
2021/12/05 21:33:06;;;;;;;;;;;;;;;;;;4924909;29;20005;-85
2021/12/05 21:35:39;;;;;;;18.15;9.50;;;;;;;;;;4923702;29;19914;-86
2021/12/05 22:46:11;;;;;;;34.40;14.20;;;;;;;;;;4180747;23;20226;-85
2021/12/05 22:49:03;;;;;;;36.47;13.88;;;;;;;;;;4804156;23;20210;-93
